Time;durP1;ratioP1;P1;durP2;ratioP2;P2;SDS_P1;SDS_P2;PMS_P1;PMS_P2;Temp;Humidity;BMP_temperature;BMP_pressure;BME280_temperature;BME280_humidity;BME280_pressure;Samples;Min_cycle;Max_cycle;Signal;HPM_P1;HPM_P2
2023/01/14 00:00:54;;;;;;;7.93;2.90;;;4.60;99.90;;;;;;5072097;28;20200;-72
2023/01/14 00:03:21;;;;;;;6.20;2.70;;;4.60;99.90;;;;;;5072007;28;20204;-73
2023/01/14 00:05:55;;;;;;;7.27;2.73;;;4.50;99.90;;;;;;5071820;28;20321;-73
2023/01/14 00:08:22;;;;;;;8.83;3.07;;;4.50;99.90;;;;;;5072044;28;20204;-73
2023/01/14 00:10:49;;;;;;;11.60;3.20;;;4.50;99.90;;;;;;5071760;28;20200;-73
2023/01/14 00:13:15;;;;;;;8.80;2.97;;;4.50;99.90;;;;;;5071632;28;20291;-73
2023/01/14 00:15:51;;;;;;;11.77;3.27;;;4.40;99.90;;;;;;5071938;28;20258;-73
2023/01/14 00:18:19;;;;;;;14.20;3.37;;;4.40;99.90;;;;;;5071286;28;20687;-74
2023/01/14 00:20:56;;;;;;;16.50;3.80;;;4.40;99.90;;;;;;5071900;28;20542;-74
2023/01/14 00:23:23;;;;;;;10.57;3.60;;;4.40;99.90;;;;;;5071653;28;20607;-73
2023/01/14 00:25:49;;;;;;;7.70;2.90;;;4.40;99.90;;;;;;5072261;28;20700;-74
2023/01/14 00:28:16;;;;;;;14.40;3.53;;;4.50;99.90;;;;;;5072244;28;20199;-73
2023/01/14 00:30:43;;;;;;;8.03;2.67;;;4.50;99.90;;;;;;5073763;28;20189;-74
2023/01/14 00:33:09;;;;;;;12.47;2.77;;;4.50;99.90;;;;;;5073872;28;20621;-74
2023/01/14 00:35:37;;;;;;;17.13;4.00;;;4.60;99.90;;;;;;5074359;28;20234;-73
2023/01/14 00:38:04;;;;;;;9.77;2.83;;;4.50;99.90;;;;;;5073962;28;20258;-75
2023/01/14 00:40:30;;;;;;;8.93;3.07;;;4.50;99.90;;;;;;5073688;28;20210;-74
2023/01/14 00:42:57;;;;;;;11.90;2.83;;;4.50;99.90;;;;;;5073625;28;20208;-73
2023/01/14 00:45:24;;;;;;;12.70;2.93;;;4.50;99.90;;;;;;5073759;28;20200;-74
2023/01/14 00:47:52;;;;;;;11.03;2.73;;;4.40;99.90;;;;;;5073721;28;20213;-74
2023/01/14 00:50:19;;;;;;;9.70;2.83;;;4.40;99.90;;;;;;5073398;28;20288;-74
2023/01/14 00:52:46;;;;;;;11.07;2.83;;;4.40;99.90;;;;;;5073505;28;20631;-74
2023/01/14 00:55:13;;;;;;;9.20;2.93;;;4.30;99.90;;;;;;5073447;28;20212;-75
2023/01/14 00:57:40;;;;;;;12.53;3.07;;;4.30;99.90;;;;;;5073352;28;20204;-72
2023/01/14 01:00:08;;;;;;;16.53;3.13;;;4.30;99.90;;;;;;5073519;28;20254;-74
2023/01/14 01:02:34;;;;;;;10.33;2.77;;;4.20;99.90;;;;;;5073442;28;20208;-74
2023/01/14 01:05:01;;;;;;;10.40;2.63;;;4.20;99.90;;;;;;5073426;28;20200;-74
2023/01/14 01:07:27;;;;;;;12.23;2.97;;;4.30;99.90;;;;;;5073156;28;20698;-72
2023/01/14 01:09:55;;;;;;;10.67;2.93;;;4.20;99.90;;;;;;5073183;28;20623;-72
2023/01/14 01:12:22;;;;;;;11.73;3.50;;;4.20;99.90;;;;;;5072999;28;20280;-72
2023/01/14 01:14:48;;;;;;;10.73;2.97;;;4.20;99.90;;;;;;5073244;28;20606;-72
2023/01/14 01:17:15;;;;;;;11.23;3.00;;;4.20;99.90;;;;;;5073249;28;20203;-72
2023/01/14 01:19:42;;;;;;;12.30;3.53;;;4.30;99.90;;;;;;5073336;28;20202;-73
2023/01/14 01:22:09;;;;;;;10.20;3.10;;;4.20;99.90;;;;;;5073016;28;20541;-73
2023/01/14 01:24:35;;;;;;;10.03;3.23;;;4.20;99.90;;;;;;5072918;28;20201;-72
2023/01/14 01:27:03;;;;;;;15.10;3.00;;;4.30;99.90;;;;;;5073233;28;20191;-72
2023/01/14 01:29:30;;;;;;;8.90;2.63;;;4.30;99.90;;;;;;5072952;28;20201;-74
2023/01/14 01:31:57;;;;;;;8.47;2.60;;;4.30;99.90;;;;;;5072894;28;20271;-73
2023/01/14 01:34:23;;;;;;;13.37;3.27;;;4.30;99.90;;;;;;5073036;28;20193;-73
2023/01/14 01:36:50;;;;;;;9.90;2.90;;;4.40;99.90;;;;;;5072739;28;20513;-73
2023/01/14 01:39:16;;;;;;;10.10;3.07;;;4.40;99.90;;;;;;5072739;28;20198;-73
2023/01/14 01:41:43;;;;;;;11.63;3.57;;;4.40;99.90;;;;;;5072789;28;20257;-73
2023/01/14 01:44:43;;;;;;;13.73;2.77;;;4.40;99.90;;;;;;5072962;28;20197;-73
2023/01/14 01:47:11;;;;;;;12.57;3.27;;;4.40;99.90;;;;;;5072808;28;20203;-73
2023/01/14 01:49:39;;;;;;;7.93;2.70;;;4.40;99.90;;;;;;5072711;28;20603;-73
2023/01/14 01:52:13;;;;;;;12.90;3.20;;;4.40;99.90;;;;;;5072834;28;20763;-73
2023/01/14 01:54:45;;;;;;;12.27;3.40;;;4.40;99.90;;;;;;5072882;28;20203;-73
2023/01/14 01:57:14;;;;;;;12.93;3.27;;;4.50;99.90;;;;;;5072667;28;20204;-73
2023/01/14 01:59:42;;;;;;;11.43;3.50;;;4.50;99.90;;;;;;5072562;28;20198;-73
2023/01/14 02:02:10;;;;;;;11.87;2.90;;;4.40;99.90;;;;;;5072482;28;20228;-73
2023/01/14 02:04:37;;;;;;;13.30;3.23;;;4.40;99.90;;;;;;5072411;28;20603;-72
2023/01/14 02:07:15;;;;;;;9.57;3.27;;;4.30;99.90;;;;;;5072643;28;20261;-72
2023/01/14 02:09:42;;;;;;;14.33;3.80;;;4.30;99.90;;;;;;5072517;28;20199;-73
2023/01/14 02:12:21;;;;;;;13.07;3.30;;;4.50;99.90;;;;;;5072377;28;20222;-73
2023/01/14 02:15:05;;;;;;;7.43;3.03;;;4.40;99.90;;;;;;5072348;28;20266;-73
2023/01/14 02:17:47;;;;;;;9.63;3.00;;;4.50;99.90;;;;;;5072524;28;20525;-72
2023/01/14 02:20:24;;;;;;;9.33;2.90;;;4.60;99.90;;;;;;5072443;28;20197;-72
2023/01/14 02:23:26;;;;;;;14.13;3.27;;;4.60;99.90;;;;;;5072417;28;20238;-72
2023/01/14 02:26:17;;;;;;;17.57;3.17;;;4.60;99.90;;;;;;5036058;28;20228;-73
2023/01/14 02:29:00;;;;;;;9.27;3.23;;;4.50;99.90;;;;;;5072460;28;20552;-72
2023/01/14 02:31:33;;;;;;;10.20;3.33;;;4.60;99.90;;;;;;5072190;28;20199;-72
2023/01/14 02:34:06;;;;;;;14.80;3.37;;;4.60;99.90;;;;;;5072415;28;20232;-72
2023/01/14 02:36:38;;;;;;;10.77;2.93;;;4.50;99.90;;;;;;5072147;28;20638;-72
2023/01/14 02:39:12;;;;;;;8.80;2.70;;;4.40;99.90;;;;;;5072344;28;20249;-72
2023/01/14 02:44:36;;;;;;;17.13;3.40;;;4.50;99.90;;;;;;5072463;28;20210;-72
2023/01/14 02:47:08;;;;;;;16.93;3.23;;;4.30;99.90;;;;;;5072237;28;20196;-72
2023/01/14 02:49:39;;;;;;;10.57;3.10;;;4.50;99.90;;;;;;5075019;28;20200;-72
2023/01/14 02:52:07;;;;;;;10.37;3.53;;;4.50;99.90;;;;;;5075693;28;20197;-72
2023/01/14 02:54:34;;;;;;;8.93;3.07;;;4.60;99.90;;;;;;5075807;28;20718;-72
2023/01/14 02:57:07;;;;;;;11.70;3.27;;;4.50;99.90;;;;;;5075911;28;20197;-72
2023/01/14 02:59:47;;;;;;;12.77;3.30;;;4.60;99.90;;;;;;5075726;28;20258;-73
2023/01/14 03:02:32;;;;;;;11.93;3.07;;;4.60;99.90;;;;;;5075646;28;20262;-72
2023/01/14 03:05:20;;;;;;;13.67;3.00;;;4.60;99.90;;;;;;5075565;28;20273;-72
2023/01/14 03:07:54;;;;;;;14.23;3.17;;;4.60;99.90;;;;;;5075662;28;20603;-72
2023/01/14 03:10:25;;;;;;;10.83;3.20;;;4.50;99.90;;;;;;5075585;28;20197;-72
2023/01/14 03:13:07;;;;;;;12.73;2.87;;;4.60;99.90;;;;;;5075352;28;20227;-73
2023/01/14 03:15:39;;;;;;;11.07;3.13;;;4.60;99.90;;;;;;5075604;28;20219;-73
2023/01/14 03:18:16;;;;;;;13.70;3.20;;;4.60;99.90;;;;;;5075399;28;20205;-72
2023/01/14 03:20:46;;;;;;;10.60;4.00;;;4.70;99.90;;;;;;5075250;28;20537;-71
2023/01/14 03:23:17;;;;;;;12.87;3.37;;;4.70;99.90;;;;;;5075170;28;20833;-72
2023/01/14 03:25:47;;;;;;;13.93;3.07;;;4.70;99.90;;;;;;5074901;28;20228;-72
2023/01/14 03:28:17;;;;;;;10.87;3.07;;;4.60;99.90;;;;;;5075314;28;20253;-71
2023/01/14 03:30:51;;;;;;;13.50;2.60;;;4.60;99.90;;;;;;5075188;28;20218;-72
2023/01/14 03:33:25;;;;;;;9.33;2.50;;;4.60;99.90;;;;;;5074914;28;20293;-71
2023/01/14 03:35:54;;;;;;;11.70;3.03;;;4.60;99.90;;;;;;5074975;28;20249;-71
2023/01/14 03:38:25;;;;;;;9.70;2.60;;;4.70;99.90;;;;;;5074863;28;20579;-72
2023/01/14 03:40:54;;;;;;;11.63;3.23;;;4.70;99.90;;;;;;5075057;28;20200;-72
2023/01/14 03:43:24;;;;;;;10.93;2.70;;;4.70;99.90;;;;;;5074908;28;20200;-72
2023/01/14 03:45:52;;;;;;;11.13;2.97;;;4.80;99.90;;;;;;5074665;28;20725;-72
2023/01/14 03:48:20;;;;;;;9.00;3.13;;;4.70;99.90;;;;;;5074945;28;20215;-71
2023/01/14 03:50:55;;;;;;;12.93;2.40;;;4.70;99.90;;;;;;5074654;28;20568;-72
2023/01/14 03:53:28;;;;;;;6.63;2.40;;;4.80;99.90;;;;;;5074421;28;20686;-72
2023/01/14 03:56:05;;;;;;;8.63;2.87;;;4.80;99.90;;;;;;5074697;28;20200;-72
2023/01/14 03:58:39;;;;;;;7.97;2.70;;;4.70;99.90;;;;;;5074582;28;20273;-72
2023/01/14 04:01:10;;;;;;;9.30;2.27;;;4.70;99.90;;;;;;5074311;28;20201;-72
2023/01/14 04:03:39;;;;;;;15.30;2.83;;;4.70;99.90;;;;;;5074804;28;20258;-72
2023/01/14 04:06:06;;;;;;;11.50;2.73;;;4.70;99.90;;;;;;5074428;28;20243;-71
2023/01/14 04:08:33;;;;;;;8.13;2.23;;;4.60;99.90;;;;;;5074405;28;20200;-72
2023/01/14 04:11:00;;;;;;;11.43;3.00;;;4.50;99.90;;;;;;5074525;28;20203;-72
2023/01/14 04:16:10;;;;;;;6.87;2.63;;;4.40;99.90;;;;;;5074395;28;20290;-72
2023/01/14 04:18:38;;;;;;;15.67;3.30;;;4.30;99.90;;;;;;5074229;28;20197;-72
2023/01/14 04:21:05;;;;;;;12.23;3.80;;;4.20;99.90;;;;;;5074246;28;20241;-72
2023/01/14 04:23:31;;;;;;;10.93;3.60;;;4.10;99.90;;;;;;5073998;28;20197;-72
2023/01/14 04:25:59;;;;;;;10.00;3.17;;;4.10;99.90;;;;;;5073623;28;20236;-72
2023/01/14 04:28:26;;;;;;;8.30;2.63;;;4.00;99.90;;;;;;5074136;28;20199;-72
2023/01/14 04:30:53;;;;;;;13.27;2.60;;;4.00;99.90;;;;;;5074099;28;20253;-72
2023/01/14 04:33:20;;;;;;;10.70;2.77;;;3.80;99.90;;;;;;5073857;28;20288;-72
2023/01/14 04:35:49;;;;;;;18.17;3.23;;;3.80;99.90;;;;;;5073754;28;20204;-73
2023/01/14 04:38:16;;;;;;;7.67;3.10;;;3.80;99.90;;;;;;5073761;28;20568;-72
2023/01/14 04:40:43;;;;;;;11.40;3.40;;;3.80;99.90;;;;;;5073605;28;20194;-72
2023/01/14 04:43:09;;;;;;;10.20;3.83;;;3.70;99.90;;;;;;5073698;28;20257;-73
2023/01/14 04:45:35;;;;;;;11.53;3.60;;;3.60;99.90;;;;;;5073638;28;20199;-72
2023/01/14 04:48:02;;;;;;;11.60;3.33;;;3.50;99.90;;;;;;5073500;28;20204;-72
2023/01/14 04:50:32;;;;;;;12.77;3.23;;;3.50;99.90;;;;;;5073537;28;20195;-72
2023/01/14 04:53:05;;;;;;;8.13;2.97;;;3.40;99.90;;;;;;5073555;28;20218;-72
2023/01/14 04:55:32;;;;;;;11.97;2.97;;;3.40;99.90;;;;;;5073542;28;20560;-72
2023/01/14 04:57:59;;;;;;;9.13;3.00;;;3.40;99.90;;;;;;5073507;28;20252;-72
2023/01/14 05:00:25;;;;;;;13.53;3.30;;;3.40;99.90;;;;;;5073411;28;20626;-72
2023/01/14 05:02:52;;;;;;;11.17;2.90;;;3.30;99.90;;;;;;5073341;28;20200;-72
2023/01/14 05:05:18;;;;;;;12.00;3.50;;;3.30;99.90;;;;;;5073269;28;20198;-72
2023/01/14 05:07:45;;;;;;;13.27;2.87;;;3.20;99.90;;;;;;5073002;28;20716;-72
2023/01/14 05:10:14;;;;;;;14.33;3.17;;;3.10;99.90;;;;;;5073383;28;20289;-72
2023/01/14 05:12:55;;;;;;;14.00;2.77;;;3.20;99.90;;;;;;5072504;28;20703;-72
2023/01/14 05:15:22;;;;;;;16.17;3.43;;;3.20;99.90;;;;;;5073059;28;20200;-72
2023/01/14 05:17:49;;;;;;;14.90;3.10;;;3.20;99.90;;;;;;5072962;28;20201;-73
2023/01/14 05:20:16;;;;;;;10.60;2.90;;;3.20;99.90;;;;;;5072953;28;20228;-72
2023/01/14 05:22:42;;;;;;;15.97;3.27;;;3.20;99.90;;;;;;5072913;28;20658;-72
2023/01/14 05:25:09;;;;;;;9.83;3.00;;;3.30;99.90;;;;;;5072923;28;20220;-72
2023/01/14 05:27:37;;;;;;;14.30;3.37;;;3.40;99.90;;;;;;5072961;28;20556;-72
2023/01/14 05:30:05;;;;;;;10.00;2.90;;;3.40;99.90;;;;;;5072847;28;20248;-72
2023/01/14 05:32:31;;;;;;;12.67;2.87;;;3.40;99.90;;;;;;5072724;28;20654;-72
2023/01/14 05:34:58;;;;;;;13.33;3.00;;;3.30;99.90;;;;;;5072657;28;20276;-72
2023/01/14 05:37:24;;;;;;;11.30;2.43;;;3.50;99.90;;;;;;5072745;28;20565;-72
2023/01/14 05:39:51;;;;;;;14.27;3.37;;;3.60;99.90;;;;;;5072932;28;20249;-72
2023/01/14 05:47:47;;;;;;;16.93;3.37;;;3.80;99.90;;;;;;5072745;28;20665;-73
2023/01/14 05:50:14;;;;;;;5.77;2.43;;;3.80;99.90;;;;;;5072563;28;20197;-73
2023/01/14 05:52:41;;;;;;;8.47;2.87;;;3.70;99.90;;;;;;5072808;28;20206;-73
2023/01/14 05:55:08;;;;;;;11.63;2.77;;;3.70;99.90;;;;;;5072805;28;20293;-73
2023/01/14 05:57:35;;;;;;;15.37;3.30;;;3.70;99.90;;;;;;5072524;28;20193;-73
2023/01/14 06:00:03;;;;;;;10.63;2.73;;;3.70;99.90;;;;;;5072826;28;20195;-72
2023/01/14 06:08:02;;;;;;;10.77;2.47;;;3.60;99.90;;;;;;5072536;28;20206;-72
2023/01/14 06:10:29;;;;;;;10.73;2.50;;;3.40;99.90;;;;;;5072628;28;20247;-72
2023/01/14 06:12:59;;;;;;;6.40;2.13;;;3.50;99.90;;;;;;5072489;28;20203;-72
2023/01/14 06:15:33;;;;;;;9.70;2.37;;;3.40;99.90;;;;;;5072542;28;20239;-72
2023/01/14 06:18:09;;;;;;;10.20;3.03;;;3.30;99.90;;;;;;5072542;28;20202;-73
2023/01/14 06:20:36;;;;;;;13.30;3.70;;;3.20;99.90;;;;;;5072278;28;20671;-72
2023/01/14 06:23:03;;;;;;;8.97;2.60;;;3.20;99.90;;;;;;5073165;28;20203;-73
2023/01/14 06:25:30;;;;;;;11.27;2.47;;;3.10;99.90;;;;;;5076199;28;20264;-72
2023/01/14 06:27:57;;;;;;;7.73;2.57;;;3.10;99.90;;;;;;5076300;28;20257;-73
2023/01/14 06:30:23;;;;;;;8.23;2.43;;;3.10;99.90;;;;;;5076247;28;20199;-73
2023/01/14 06:32:51;;;;;;;9.47;2.53;;;2.90;99.90;;;;;;5076087;28;20265;-73
2023/01/14 06:35:18;;;;;;;10.40;2.50;;;2.90;99.90;;;;;;5075989;28;20221;-74
2023/01/14 06:37:45;;;;;;;9.70;2.33;;;2.80;99.90;;;;;;5076266;28;20228;-74
2023/01/14 06:40:13;;;;;;;12.83;3.03;;;2.80;99.90;;;;;;5076165;28;20251;-72
2023/01/14 06:42:40;;;;;;;6.93;2.87;;;2.90;99.90;;;;;;5076007;28;20556;-72
2023/01/14 06:45:08;;;;;;;7.80;2.80;;;2.80;99.90;;;;;;5075927;28;20606;-72
2023/01/14 06:47:35;;;;;;;8.87;2.53;;;2.80;99.90;;;;;;5075831;28;20199;-72
2023/01/14 06:50:03;;;;;;;15.43;2.50;;;2.80;99.90;;;;;;5075791;28;20259;-72
2023/01/14 06:52:29;;;;;;;11.63;3.50;;;2.70;99.90;;;;;;5075875;28;20202;-72
2023/01/14 06:54:58;;;;;;;10.73;3.20;;;2.70;99.90;;;;;;5075692;28;20270;-72
2023/01/14 06:57:25;;;;;;;8.70;3.13;;;2.80;99.90;;;;;;5075884;28;20229;-73
2023/01/14 06:59:53;;;;;;;8.60;2.83;;;2.80;99.90;;;;;;5075595;28;20209;-73
2023/01/14 07:02:20;;;;;;;7.23;2.70;;;2.80;99.90;;;;;;5075507;28;20202;-73
2023/01/14 07:04:47;;;;;;;12.63;3.17;;;2.90;99.90;;;;;;5075761;28;20243;-72
2023/01/14 07:07:15;;;;;;;10.60;3.47;;;2.90;99.90;;;;;;5075890;28;20603;-73
2023/01/14 07:09:42;;;;;;;5.63;2.40;;;2.80;99.90;;;;;;5075496;28;20251;-74
2023/01/14 07:12:08;;;;;;;7.50;2.67;;;2.80;99.90;;;;;;5075727;28;20207;-73
2023/01/14 07:14:35;;;;;;;5.27;2.30;;;2.80;99.90;;;;;;5075220;28;20263;-73
2023/01/14 07:17:01;;;;;;;13.33;2.70;;;2.80;99.90;;;;;;5075330;28;20275;-72
2023/01/14 07:19:28;;;;;;;9.30;3.10;;;2.80;99.90;;;;;;5075465;28;20243;-74
2023/01/14 07:21:55;;;;;;;11.33;2.60;;;2.80;99.90;;;;;;5075244;28;20242;-73
2023/01/14 07:24:23;;;;;;;8.50;2.50;;;2.80;99.90;;;;;;5075175;28;20200;-73
2023/01/14 07:26:49;;;;;;;10.03;2.80;;;2.80;99.90;;;;;;5075115;28;20233;-73
2023/01/14 07:29:16;;;;;;;4.50;2.13;;;2.80;99.90;;;;;;5077758;28;20205;-73
2023/01/14 07:31:42;;;;;;;4.90;2.60;;;2.80;99.90;;;;;;5075206;28;20668;-73
2023/01/14 07:34:09;;;;;;;5.83;2.50;;;2.70;99.90;;;;;;5074587;28;20223;-73
2023/01/14 07:36:36;;;;;;;5.10;2.70;;;2.70;99.90;;;;;;5075321;28;20223;-73
2023/01/14 07:39:03;;;;;;;5.67;2.47;;;2.70;99.90;;;;;;5075024;28;20256;-73
2023/01/14 07:41:30;;;;;;;7.03;2.73;;;2.60;99.90;;;;;;5074698;28;20718;-73
2023/01/14 07:43:57;;;;;;;6.37;2.70;;;2.70;99.90;;;;;;5074552;28;20254;-73
2023/01/14 07:46:24;;;;;;;11.53;3.27;;;2.70;99.90;;;;;;5074782;28;20262;-73
2023/01/14 07:48:50;;;;;;;5.97;2.67;;;2.70;99.90;;;;;;5074858;28;20247;-73
2023/01/14 07:51:20;;;;;;;9.57;3.13;;;2.80;99.90;;;;;;5074815;28;20250;-72
2023/01/14 07:53:47;;;;;;;5.50;2.40;;;2.80;99.90;;;;;;5074934;28;20218;-73
2023/01/14 07:56:13;;;;;;;4.53;2.50;;;2.80;99.90;;;;;;5074678;28;20615;-73
2023/01/14 07:58:42;;;;;;;10.63;3.03;;;2.80;99.90;;;;;;5074756;28;20662;-74
2023/01/14 08:01:09;;;;;;;8.03;2.87;;;2.90;99.90;;;;;;5074492;28;20228;-73
2023/01/14 08:03:37;;;;;;;7.37;2.50;;;3.00;99.90;;;;;;5074672;28;20239;-73
2023/01/14 08:06:05;;;;;;;7.23;2.37;;;3.00;99.90;;;;;;5074654;28;20203;-74
2023/01/14 08:08:32;;;;;;;10.50;2.97;;;3.10;99.90;;;;;;5074432;28;20250;-73
2023/01/14 08:11:00;;;;;;;7.03;2.67;;;3.20;99.90;;;;;;5074311;28;20250;-73
2023/01/14 08:13:27;;;;;;;9.70;2.80;;;3.30;99.90;;;;;;5074545;28;20311;-73
2023/01/14 08:15:59;;;;;;;6.20;2.47;;;3.40;99.90;;;;;;5074789;28;20202;-74
2023/01/14 08:18:26;;;;;;;9.63;2.50;;;3.40;99.90;;;;;;5074276;28;20198;-74
2023/01/14 08:20:57;;;;;;;7.07;3.10;;;3.50;99.90;;;;;;5074345;28;20199;-73
2023/01/14 08:23:23;;;;;;;7.40;2.43;;;3.60;99.90;;;;;;5074264;28;20299;-73
2023/01/14 08:25:50;;;;;;;9.50;2.53;;;3.80;99.90;;;;;;5073754;28;20776;-73
2023/01/14 08:28:17;;;;;;;8.57;2.80;;;4.00;99.90;;;;;;5074074;28;20201;-73
2023/01/14 08:30:43;;;;;;;8.63;2.50;;;4.20;99.90;;;;;;5074004;28;20199;-73
2023/01/14 08:33:11;;;;;;;6.30;2.80;;;4.30;99.90;;;;;;5073928;28;20258;-73
2023/01/14 08:35:39;;;;;;;6.93;2.40;;;4.40;99.90;;;;;;5073723;28;20581;-72
2023/01/14 08:38:06;;;;;;;3.27;2.23;;;4.40;99.90;;;;;;5073600;28;20526;-73
2023/01/14 08:40:33;;;;;;;7.40;2.47;;;4.50;99.90;;;;;;5073843;28;20205;-72
2023/01/14 08:42:59;;;;;;;5.13;2.70;;;4.40;99.90;;;;;;5073454;28;20652;-73
2023/01/14 08:45:26;;;;;;;4.60;2.00;;;4.50;99.90;;;;;;5073232;28;20200;-73
2023/01/14 08:47:52;;;;;;;4.90;2.80;;;4.60;99.90;;;;;;5073321;28;20207;-73
2023/01/14 08:50:21;;;;;;;4.80;2.40;;;4.60;99.90;;;;;;5073564;28;20200;-74
2023/01/14 08:52:47;;;;;;;4.57;2.60;;;4.50;99.90;;;;;;5073350;28;20552;-73
2023/01/14 08:55:14;;;;;;;7.70;2.67;;;4.50;99.90;;;;;;5073523;28;20285;-74
2023/01/14 08:57:40;;;;;;;9.10;2.90;;;4.50;99.90;;;;;;5073491;28;20223;-74
2023/01/14 09:00:09;;;;;;;6.37;2.70;;;4.50;99.90;;;;;;5073392;28;20200;-74
2023/01/14 09:02:35;;;;;;;8.27;2.80;;;4.50;99.90;;;;;;5073362;28;20196;-73
2023/01/14 09:05:02;;;;;;;5.33;2.47;;;4.50;99.90;;;;;;5073216;28;20203;-73
2023/01/14 09:18:27;;;;;;;7.30;3.07;;;4.90;99.90;;;;;;5072991;28;20564;-72
2023/01/14 09:20:53;;;;;;;7.97;2.23;;;4.90;99.90;;;;;;5073054;28;20205;-74
2023/01/14 09:23:21;;;;;;;5.37;2.00;;;4.90;99.90;;;;;;5072994;28;20670;-73
2023/01/14 09:25:48;;;;;;;7.93;2.30;;;5.00;99.90;;;;;;5072773;28;20224;-74
2023/01/14 09:28:14;;;;;;;8.20;2.77;;;5.10;99.90;;;;;;5072833;28;20710;-74
2023/01/14 09:30:41;;;;;;;7.87;2.93;;;5.10;99.90;;;;;;5073049;28;20201;-75
2023/01/14 09:33:07;;;;;;;6.30;2.20;;;5.10;99.90;;;;;;5072947;28;20607;-75
2023/01/14 09:35:34;;;;;;;5.57;2.33;;;5.20;99.90;;;;;;5072676;28;20233;-77
2023/01/14 09:38:01;;;;;;;8.57;2.70;;;5.20;99.90;;;;;;5072697;28;20243;-74
2023/01/14 09:40:29;;;;;;;9.73;2.57;;;5.20;99.90;;;;;;5072750;28;20197;-74
2023/01/14 09:42:57;;;;;;;8.27;2.57;;;5.30;99.90;;;;;;5072667;28;20197;-72
2023/01/14 09:45:26;;;;;;;7.83;2.80;;;5.40;99.90;;;;;;5072714;28;20680;-73
2023/01/14 09:47:55;;;;;;;9.63;2.93;;;5.50;99.90;;;;;;5072752;28;20192;-73
2023/01/14 09:50:28;;;;;;;10.33;2.73;;;5.70;99.90;;;;;;5072870;28;20201;-73
2023/01/14 09:53:11;;;;;;;9.10;2.40;;;5.70;99.90;;;;;;5072511;28;20197;-73
2023/01/14 09:55:44;;;;;;;6.30;2.67;;;5.60;99.90;;;;;;5072373;28;20717;-74
2023/01/14 09:58:17;;;;;;;6.67;2.50;;;5.80;99.90;;;;;;5075150;28;20197;-74
2023/01/14 10:00:51;;;;;;;10.17;2.70;;;5.90;99.90;;;;;;5076965;28;20201;-73
2023/01/14 10:03:25;;;;;;;9.33;2.63;;;6.00;99.90;;;;;;5076627;28;20197;-72
2023/01/14 10:05:57;;;;;;;7.10;2.87;;;6.00;99.90;;;;;;5077106;28;20226;-72
2023/01/14 10:08:26;;;;;;;5.63;2.53;;;6.10;99.90;;;;;;5076742;28;20205;-73
2023/01/14 10:10:55;;;;;;;8.50;2.80;;;6.00;99.90;;;;;;5077016;28;20197;-74
2023/01/14 10:13:25;;;;;;;7.67;2.90;;;6.10;99.90;;;;;;5076637;28;20552;-74
2023/01/14 10:15:56;;;;;;;8.70;2.40;;;6.10;99.90;;;;;;5076504;28;20316;-74
2023/01/14 10:18:27;;;;;;;9.13;3.00;;;6.20;99.90;;;;;;5076595;28;20259;-73
2023/01/14 10:20:56;;;;;;;5.93;2.40;;;6.20;99.90;;;;;;5076625;28;20282;-73
2023/01/14 10:23:25;;;;;;;10.97;3.30;;;6.20;99.90;;;;;;5076643;28;20201;-73
2023/01/14 10:25:54;;;;;;;5.43;2.17;;;6.20;99.90;;;;;;5076331;28;20274;-73
2023/01/14 10:28:24;;;;;;;11.37;2.93;;;6.20;99.90;;;;;;5076286;28;20193;-74
2023/01/14 10:30:52;;;;;;;5.23;2.10;;;6.30;99.90;;;;;;5076597;28;20296;-74
2023/01/14 10:33:21;;;;;;;11.47;3.23;;;6.40;99.90;;;;;;5076132;28;20669;-74
2023/01/14 10:35:52;;;;;;;9.27;2.77;;;6.40;99.90;;;;;;5075924;28;20696;-74
2023/01/14 10:38:22;;;;;;;10.93;2.97;;;6.60;99.90;;;;;;5076202;28;20197;-73
2023/01/14 10:40:50;;;;;;;6.60;2.60;;;6.60;99.90;;;;;;5075902;28;20590;-74
2023/01/14 10:43:28;;;;;;;7.00;3.00;;;6.70;99.90;;;;;;5075861;28;20257;-74
2023/01/14 10:45:54;;;;;;;8.77;2.53;;;6.60;99.90;;;;;;5076206;28;20204;-74
2023/01/14 10:48:24;;;;;;;8.43;2.67;;;6.70;99.90;;;;;;5075743;28;20595;-73
2023/01/14 10:50:51;;;;;;;10.53;3.03;;;6.70;99.90;;;;;;5075831;28;20239;-74
2023/01/14 10:53:20;;;;;;;9.57;3.00;;;6.60;99.90;;;;;;5075867;28;20258;-73
2023/01/14 10:55:51;;;;;;;9.13;2.97;;;6.60;99.90;;;;;;5075621;28;20220;-74
2023/01/14 10:58:31;;;;;;;7.50;3.00;;;6.40;99.90;;;;;;5075827;28;20223;-73
2023/01/14 11:01:04;;;;;;;8.43;3.50;;;6.20;99.90;;;;;;5075767;28;20670;-74
2023/01/14 11:03:32;;;;;;;11.53;4.63;;;6.10;99.90;;;;;;5075725;28;20197;-73
2023/01/14 11:06:02;;;;;;;5.67;2.63;;;6.20;99.90;;;;;;5075567;28;20202;-73
2023/01/14 11:08:34;;;;;;;10.67;2.90;;;6.20;99.90;;;;;;5075259;28;20193;-74
2023/01/14 11:11:04;;;;;;;13.30;3.30;;;6.30;99.90;;;;;;5075531;28;20207;-74
2023/01/14 11:13:36;;;;;;;5.50;2.63;;;6.40;99.90;;;;;;5075707;28;20561;-74
2023/01/14 11:16:03;;;;;;;7.27;2.57;;;6.40;99.90;;;;;;5075466;28;20557;-74
2023/01/14 11:18:32;;;;;;;8.53;2.80;;;6.50;99.90;;;;;;5075243;28;20197;-74
2023/01/14 11:21:08;;;;;;;6.50;2.60;;;6.60;99.90;;;;;;5075558;28;20197;-73
2023/01/14 11:23:37;;;;;;;7.67;2.77;;;6.60;99.90;;;;;;5075332;28;20610;-73
2023/01/14 11:26:08;;;;;;;5.53;2.80;;;6.60;99.90;;;;;;5075193;28;20233;-73
2023/01/14 11:28:39;;;;;;;9.30;2.80;;;6.70;99.90;;;;;;5075258;28;20197;-73
2023/01/14 11:31:07;;;;;;;6.27;2.87;;;7.00;99.90;;;;;;5075180;28;20199;-73
2023/01/14 11:33:34;;;;;;;5.30;2.60;;;6.90;99.90;;;;;;5075966;28;20254;-87
2023/01/14 11:36:08;;;;;;;10.07;3.33;;;7.10;99.90;;;;;;5075310;28;20227;-74
2023/01/14 11:38:43;;;;;;;8.77;3.00;;;7.20;99.90;;;;;;5075234;28;20197;-73
2023/01/14 11:41:30;;;;;;;6.20;2.73;;;7.20;99.90;;;;;;5075054;28;20197;-73
2023/01/14 11:44:00;;;;;;;7.57;2.63;;;7.20;99.90;;;;;;5074612;28;20652;-74
2023/01/14 11:46:27;;;;;;;6.53;2.60;;;7.00;99.90;;;;;;5075065;28;20202;-74
2023/01/14 11:49:04;;;;;;;5.30;2.23;;;7.10;99.90;;;;;;5074820;28;20253;-74
2023/01/14 11:51:32;;;;;;;6.53;2.70;;;7.20;99.90;;;;;;5074756;28;20197;-74
2023/01/14 11:53:59;;;;;;;5.83;2.30;;;7.10;99.90;;;;;;5074441;28;20571;-74
2023/01/14 11:56:31;;;;;;;8.63;2.37;;;7.20;99.90;;;;;;5074732;28;20262;-73
2023/01/14 11:59:01;;;;;;;5.80;2.43;;;7.30;99.90;;;;;;5074715;28;20195;-74
2023/01/14 12:01:34;;;;;;;7.40;2.67;;;7.30;99.90;;;;;;5074893;28;20205;-73
2023/01/14 12:04:04;;;;;;;5.47;2.43;;;7.30;99.90;;;;;;5074387;28;20231;-74
2023/01/14 12:06:41;;;;;;;8.47;4.00;;;7.20;99.90;;;;;;5074285;28;20205;-73
2023/01/14 12:09:15;;;;;;;6.33;2.57;;;7.30;99.90;;;;;;5074365;28;20668;-74
2023/01/14 12:11:50;;;;;;;4.93;2.50;;;7.40;99.90;;;;;;5074338;28;20193;-74
2023/01/14 12:17:11;;;;;;;6.70;2.43;;;7.50;99.90;;;;;;5074347;28;20228;-75
2023/01/14 12:19:44;;;;;;;4.87;2.17;;;7.50;99.90;;;;;;5074041;28;20200;-74
2023/01/14 12:22:16;;;;;;;4.83;2.30;;;7.50;99.90;;;;;;5074080;28;20284;-74
2023/01/14 12:24:57;;;;;;;4.87;2.30;;;7.50;99.90;;;;;;5073850;28;20227;-74
2023/01/14 12:27:43;;;;;;;5.23;2.40;;;7.60;99.90;;;;;;5073820;28;20197;-73
2023/01/14 12:30:26;;;;;;;5.90;2.27;;;7.40;99.90;;;;;;5073532;28;20197;-74
2023/01/14 12:32:59;;;;;;;4.13;2.30;;;7.50;99.90;;;;;;5072325;28;20197;-74
2023/01/14 12:35:31;;;;;;;6.40;2.30;;;7.40;99.90;;;;;;5073555;28;20217;-75
2023/01/14 12:38:01;;;;;;;7.87;2.40;;;7.50;99.90;;;;;;5053371;28;20196;-73
2023/01/14 12:46:11;;;;;;;6.30;2.67;;;7.60;99.90;;;;;;5057766;28;20666;-74
2023/01/14 12:48:38;;;;;;;6.03;2.87;;;7.80;99.90;;;;;;5073458;28;20193;-73
2023/01/14 12:51:08;;;;;;;7.50;2.50;;;7.80;99.90;;;;;;5073647;28;20193;-74
2023/01/14 12:53:42;;;;;;;6.33;2.60;;;8.00;99.90;;;;;;5073426;28;20201;-73
2023/01/14 12:56:16;;;;;;;6.67;2.73;;;8.10;99.90;;;;;;5073377;28;20267;-73
2023/01/14 12:58:53;;;;;;;6.53;2.37;;;8.20;99.90;;;;;;5073239;28;20201;-73
2023/01/14 13:01:25;;;;;;;8.37;2.97;;;8.10;99.90;;;;;;5073406;28;20197;-73
2023/01/14 13:03:55;;;;;;;6.50;2.60;;;8.20;99.90;;;;;;5073241;28;20560;-73
2023/01/14 13:06:26;;;;;;;8.93;2.73;;;8.20;99.90;;;;;;5073213;28;20271;-73
2023/01/14 13:08:55;;;;;;;6.27;2.50;;;8.20;99.90;;;;;;5073178;28;20218;-74
2023/01/14 13:11:25;;;;;;;6.07;2.50;;;8.20;99.90;;;;;;5073402;28;20197;-74
2023/01/14 13:13:53;;;;;;;5.63;2.90;;;8.10;99.90;;;;;;5073147;28;20245;-72
2023/01/14 13:16:36;;;;;;;4.43;2.60;;;8.10;99.90;;;;;;5073264;28;20274;-74
2023/01/14 13:19:05;;;;;;;6.83;2.83;;;8.10;99.90;;;;;;5065241;28;20198;-73
2023/01/14 13:22:00;;;;;;;6.80;3.03;;;8.00;99.90;;;;;;5052918;28;20201;-73
2023/01/14 13:24:30;;;;;;;12.10;3.30;;;8.00;99.90;;;;;;5052987;28;20247;-73
2023/01/14 13:26:58;;;;;;;7.40;2.90;;;8.00;99.90;;;;;;5069615;28;20205;-72
2023/01/14 13:29:28;;;;;;;10.50;3.13;;;7.80;99.90;;;;;;5072607;28;20197;-72
2023/01/14 13:31:56;;;;;;;8.00;3.00;;;7.90;99.90;;;;;;5072216;28;20200;-72
2023/01/14 13:34:37;;;;;;;7.87;2.50;;;7.80;99.90;;;;;;5073179;28;20200;-72
2023/01/14 13:37:23;;;;;;;5.43;2.30;;;7.80;99.90;;;;;;5072611;28;20233;-73
2023/01/14 13:39:54;;;;;;;7.80;2.90;;;7.70;99.90;;;;;;5072414;28;20194;-72
2023/01/14 13:42:31;;;;;;;5.90;2.40;;;7.70;99.90;;;;;;5072644;28;20615;-72